Weather reports worldwide

Advertisment
Navacerrada, Spain (8215): temperature & dewpoint: 14.08.2019 06:00:00 - 20.08.2019 06:00:00 (CEST)Navacerrada, Spain (8215): wind speed: 14.08.2019 06:00:00 - 20.08.2019 06:00:00 (CEST)Navacerrada, Spain (8215): wind direction: 14.08.2019 06:00:00 - 20.08.2019 06:00:00 (CEST)Navacerrada, Spain (8215): visibility: 14.08.2019 06:00:00 - 20.08.2019 06:00:00 (CEST)Navacerrada, Spain (8215): precipitation: 14.08.2019 06:00:00 - 20.08.2019 06:00:00 (CEST)
Date & Time tt [°C] td [°C] ff [km/h] ff [kn] dd vv [km] rr [mm]
20.08.2019 06:00:00 11,8 4,7 9 5 SSW 20 0,0
20.08.2019 05:00:00 11,4 5,0 5 3 SW 20 -
20.08.2019 04:00:00 11,9 5,1 22 12 SSW 20 0,0
20.08.2019 03:00:00 10,1 6,1 24 13 SSW 18 1,0
20.08.2019 02:00:00 10,8 6,0 18 10 W 4,0 -
20.08.2019 01:00:00 11,6 5,5 24 13 SW 2,4 1,0
20.08.2019 00:00:00 14,6 3,1 15 8 SW 16 0,0
19.08.2019 23:00:00 15,0 3,5 15 8 S 20 -
19.08.2019 22:00:00 15,0 8,7 8 4 ENE 20 0,0
19.08.2019 21:00:00 17,1 -0,2 5 3 S 20 0,0
19.08.2019 20:00:00 15,8 9,5 2 1 S 30 -
19.08.2019 19:00:00 17,0 9,7 5 3 N 20 0,0
19.08.2019 18:00:00 18,8 9,6 11 6 NW 20 0,0
19.08.2019 17:00:00 21,2 2,9 15 8 SW 30 -
19.08.2019 16:00:00 19,9 5,2 13 7 SW 20 0,0
19.08.2019 15:00:00 21,1 5,8 11 6 SSW 20 0,0
19.08.2019 14:00:00 19,2 7,3 9 5 SW 30 -
19.08.2019 13:00:00 20,4 9,6 11 6 S 20 0,0
19.08.2019 12:00:00 19,2 9,1 11 6 S 20 0,0
19.08.2019 11:00:00 16,3 9,5 21 11 SSE 40 -
19.08.2019 10:00:00 17,2 10,3 13 7 SSE 20 0,0
19.08.2019 09:00:00 14,2 10,6 18 10 SSE 20 0,0
19.08.2019 08:00:00 13,0 10,0 8 4 SSW 30 -
19.08.2019 07:00:00 13,0 10,0 15 8 SSW 20 0,0
19.08.2019 06:00:00 13,4 9,4 15 8 SW 20 0,0
19.08.2019 05:00:00 13,7 8,3 11 6 SSW 20 -
19.08.2019 04:00:00 12,9 10,1 4 2 WNW 20 0,0
19.08.2019 03:00:00 13,0 10,0 5 3 N 20 0,0
19.08.2019 02:00:00 13,3 10,5 5 3 W 20 -
19.08.2019 01:00:00 13,4 10,6 8 4 NNW 20 0,0
19.08.2019 00:00:00 14,2 10,0 8 4 WNW 20 0,0
18.08.2019 23:00:00 14,7 9,5 11 6 N 20 -
18.08.2019 22:00:00 15,8 6,0 9 5 N 20 0,0
18.08.2019 21:00:00 17,5 5,7 11 6 NNW 20 0,0
18.08.2019 20:00:00 19,7 4,2 13 7 NNW 30 -
18.08.2019 19:00:00 19,8 3,5 15 8 NNW 20 0,0
18.08.2019 18:00:00 23,6 4,0 9 5 W 20 0,0
18.08.2019 17:00:00 24,3 6,1 9 5 NW 40 -
18.08.2019 16:00:00 22,9 6,6 11 6 N 20 0,0
18.08.2019 15:00:00 23,9 7,1 9 5 NNW 20 0,0
18.08.2019 14:00:00 24,3 -0,1 11 6 SW 40 -
18.08.2019 13:00:00 24,9 2,3 11 6 SSW 20 0,0
18.08.2019 12:00:00 23,0 1,3 13 7 SSW 20 0,0
18.08.2019 11:00:00 21,3 2,0 16 9 SSW 20 -
18.08.2019 10:00:00 20,5 0,3 16 9 S 20 0,0
18.08.2019 09:00:00 18,4 0,5 16 9 S 20 0,0
18.08.2019 08:00:00 17,4 -0,8 22 12 SSW 30 -
18.08.2019 07:00:00 17,2 -0,5 22 12 SSW 20 0,0
18.08.2019 06:00:00 16,6 -2,0 21 11 SW 20 0,0
18.08.2019 05:00:00 14,2 2,7 11 6 E 20 -
18.08.2019 04:00:00 16,9 1,7 9 5 ENE 20 0,0
18.08.2019 03:00:00 17,8 0,0 4 2 W 20 0,0
18.08.2019 02:00:00 18,0 2,3 4 2 NNW 20 -
18.08.2019 01:00:00 18,5 1,5 5 3 NNW 20 0,0
18.08.2019 00:00:00 19,1 2,0 9 5 NNW 20 0,0
17.08.2019 23:00:00 19,6 2,0 8 4 NW 20 -
17.08.2019 22:00:00 20,6 4,2 4 2 NW 20 0,0
17.08.2019 21:00:00 22,2 3,3 4 2 N 20 0,0
17.08.2019 20:00:00 25,3 -0,7 13 7 SW 20 -
17.08.2019 19:00:00 26,6 -2,2 11 6 SSW 20 0,0
17.08.2019 18:00:00 28,1 -2,9 15 8 SW 20 0,0
17.08.2019 17:00:00 28,1 -2,9 11 6 SSW 20 -
17.08.2019 16:00:00 27,8 0,5 21 11 S 20 0,0
17.08.2019 15:00:00 27,4 3,1 16 9 SSW 20 0,0
17.08.2019 14:00:00 26,5 4,3 9 5 SW 20 -
17.08.2019 13:00:00 25,3 3,8 18 10 SW 20 0,0
17.08.2019 12:00:00 24,0 4,4 11 6 SSW 20 0,0
17.08.2019 11:00:00 22,9 4,9 11 6 S 30 -
17.08.2019 10:00:00 20,5 4,5 15 8 SSW 20 0,0
17.08.2019 09:00:00 18,4 3,8 13 7 S 20 0,0
17.08.2019 08:00:00 16,5 3,2 13 7 S 30 -
17.08.2019 07:00:00 16,6 3,3 15 8 SSW 20 0,0
17.08.2019 06:00:00 16,4 2,8 5 3 W 20 0,0
17.08.2019 05:00:00 15,5 2,6 4 2 ENE 20 -
17.08.2019 04:00:00 15,7 2,5 8 4 NNW 20 0,0
17.08.2019 03:00:00 16,4 1,3 9 5 NW 20 0,0
17.08.2019 02:00:00 17,7 3,9 8 4 NNW 20 -
17.08.2019 01:00:00 17,7 3,6 11 6 N 20 0,0
17.08.2019 00:00:00 18,1 3,2 8 4 NNW 20 0,0
16.08.2019 23:00:00 18,8 3,0 9 5 NNW 20 -
16.08.2019 22:00:00 18,9 3,9 11 6 NNW 20 0,0
16.08.2019 21:00:00 20,5 4,9 11 6 NNW 20 0,0
16.08.2019 20:00:00 23,7 7,3 9 5 NW 30 -
16.08.2019 19:00:00 24,6 7,7 11 6 NW 20 0,0
16.08.2019 18:00:00 25,8 7,4 11 6 W 20 0,0
16.08.2019 17:00:00 27,2 8,1 9 5 W 30 -
16.08.2019 16:00:00 26,5 8,5 13 7 WNW 20 0,0
16.08.2019 15:00:00 23,9 7,5 9 5 NW 20 0,0
16.08.2019 14:00:00 24,3 7,4 4 2 N 30 -
16.08.2019 13:00:00 25,5 8,0 9 5 SSW 20 0,0
16.08.2019 12:00:00 23,9 8,3 8 4 SSW 20 0,0
16.08.2019 11:00:00 22,2 8,0 9 5 SSW 29 -
16.08.2019 10:00:00 20,3 7,0 5 3 S 20 0,0
16.08.2019 09:00:00 18,4 5,9 2 1 WSW 20 0,0
16.08.2019 08:00:00 16,4 6,0 4 2 WNW 25 -
16.08.2019 07:00:00 16,3 5,6 2 1 NNE 20 0,0
16.08.2019 06:00:00 16,5 6,0 8 4 NNE 20 0,0
16.08.2019 05:00:00 16,9 5,5 8 4 WNW 20 -
16.08.2019 04:00:00 17,1 5,4 8 4 W 20 0,0
16.08.2019 03:00:00 16,6 6,1 4 2 N 20 0,0
16.08.2019 02:00:00 16,4 7,1 5 3 ENE 20 -
16.08.2019 01:00:00 17,1 7,2 4 2 NW 20 0,0
16.08.2019 00:00:00 17,0 7,1 8 4 N 20 0,0
15.08.2019 23:00:00 17,5 6,4 5 3 WNW 20 -
15.08.2019 22:00:00 18,0 5,9 11 6 NNW 20 0,0
15.08.2019 21:00:00 20,0 4,1 8 4 NW 20 0,0
15.08.2019 20:00:00 22,0 2,7 9 5 NW 30 -
15.08.2019 19:00:00 23,3 2,7 11 6 NW 20 0,0
15.08.2019 18:00:00 23,8 3,7 13 7 NNW 20 0,0
15.08.2019 17:00:00 25,0 5,2 9 5 NW 40 -
15.08.2019 16:00:00 24,2 6,5 9 5 NNW 20 0,0
15.08.2019 15:00:00 23,5 7,6 9 5 NNW 20 0,0
15.08.2019 14:00:00 22,6 10,1 13 7 NNW 40 -
15.08.2019 13:00:00 22,2 10,3 9 5 NNW 20 0,0
15.08.2019 12:00:00 21,6 8,8 5 3 NW 20 0,0
15.08.2019 11:00:00 20,8 9,7 4 2 N 30 -
15.08.2019 10:00:00 18,1 9,4 5 3 N 20 0,0
15.08.2019 09:00:00 16,8 9,2 8 4 N 20 0,0
15.08.2019 08:00:00 14,0 7,5 8 4 NNE 20 -
15.08.2019 07:00:00 14,0 4,8 5 3 NNW 20 0,0
15.08.2019 06:00:00 15,2 3,3 5 3 N 20 0,0
15.08.2019 05:00:00 15,1 2,9 8 4 N 20 -
15.08.2019 04:00:00 14,8 3,0 11 6 NNE 20 0,0
15.08.2019 03:00:00 16,5 2,8 9 5 NNE 20 0,0
15.08.2019 02:00:00 16,1 1,8 8 4 NE 20 -
15.08.2019 01:00:00 16,1 1,4 8 4 NE 20 0,0
15.08.2019 00:00:00 16,6 1,1 9 5 NNW 20 0,0
14.08.2019 23:00:00 16,3 0,8 9 5 N 20 -
14.08.2019 22:00:00 16,9 0,1 9 5 NNW 20 0,0
14.08.2019 21:00:00 18,6 0,2 8 4 NNW 20 0,0
14.08.2019 20:00:00 20,6 -0,7 11 6 NNW 30 -
14.08.2019 19:00:00 22,1 0,6 8 4 WNW 20 0,0
14.08.2019 18:00:00 22,8 0,0 8 4 NW 20 0,0
14.08.2019 17:00:00 23,4 0,5 9 5 NNW 40 -
14.08.2019 16:00:00 23,9 0,9 11 6 N 20 0,0
14.08.2019 15:00:00 22,6 0,4 11 6 N 20 0,0
14.08.2019 14:00:00 22,0 0,5 8 4 NW 40 -
14.08.2019 13:00:00 20,3 0,1 8 4 NW 20 0,0
14.08.2019 12:00:00 20,6 0,9 5 3 WNW 20 0,0
14.08.2019 11:00:00 18,8 1,3 5 3 NNW 30 -
14.08.2019 10:00:00 17,2 -0,1 4 2 NW 20 0,0
14.08.2019 09:00:00 14,4 0,2 4 2 SSW 20 0,0
14.08.2019 08:00:00 12,5 0,6 4 2 WNW 20 -
14.08.2019 07:00:00 12,1 0,8 4 2 W 20 0,0
14.08.2019 06:00:00 11,9 -4,3 2 1 NE 20 0,0

tt = temperature
td = dewpoint
ff = wind speed
dd = wind direction
vv = visibility
rr = precipitation

Next stations